sensor_id;sensor_type;location;lat;lon;timestamp;temperature;humidity
68912;SHT31;55953;51.650;-0.522;2023-05-24T00:00:28;10.57;74.72
68912;SHT31;55953;51.650;-0.522;2023-05-24T00:03:17;10.56;74.90
68912;SHT31;55953;51.650;-0.522;2023-05-24T00:05:45;10.59;74.58
68912;SHT31;55953;51.650;-0.522;2023-05-24T00:08:13;10.59;74.56
68912;SHT31;55953;51.650;-0.522;2023-05-24T00:10:44;10.58;74.51
68912;SHT31;55953;51.650;-0.522;2023-05-24T00:13:12;10.56;74.60
68912;SHT31;55953;51.650;-0.522;2023-05-24T00:15:42;10.46;74.78
68912;SHT31;55953;51.650;-0.522;2023-05-24T00:18:10;10.38;74.95
68912;SHT31;55953;51.650;-0.522;2023-05-24T00:20:38;10.29;75.02
68912;SHT31;55953;51.650;-0.522;2023-05-24T00:23:06;10.23;75.14
68912;SHT31;55953;51.650;-0.522;2023-05-24T00:25:34;10.20;75.14
68912;SHT31;55953;51.650;-0.522;2023-05-24T00:28:02;10.15;75.23
68912;SHT31;55953;51.650;-0.522;2023-05-24T00:30:30;10.08;75.34
68912;SHT31;55953;51.650;-0.522;2023-05-24T00:32:58;10.05;75.40
68912;SHT31;55953;51.650;-0.522;2023-05-24T00:35:26;9.99;75.39
68912;SHT31;55953;51.650;-0.522;2023-05-24T00:37:54;9.92;75.50
68912;SHT31;55953;51.650;-0.522;2023-05-24T00:40:23;9.85;75.78
68912;SHT31;55953;51.650;-0.522;2023-05-24T00:42:51;9.82;76.03
68912;SHT31;55953;51.650;-0.522;2023-05-24T00:45:19;9.82;75.97
68912;SHT31;55953;51.650;-0.522;2023-05-24T00:47:48;9.87;76.01
68912;SHT31;55953;51.650;-0.522;2023-05-24T00:50:16;9.84;75.79
68912;SHT31;55953;51.650;-0.522;2023-05-24T00:52:44;9.78;75.96
68912;SHT31;55953;51.650;-0.522;2023-05-24T00:55:17;9.80;75.97
68912;SHT31;55953;51.650;-0.522;2023-05-24T00:57:45;9.80;75.76
68912;SHT31;55953;51.650;-0.522;2023-05-24T01:00:14;9.71;75.94
68912;SHT31;55953;51.650;-0.522;2023-05-24T01:02:43;9.67;76.22
68912;SHT31;55953;51.650;-0.522;2023-05-24T01:05:11;9.66;76.26
68912;SHT31;55953;51.650;-0.522;2023-05-24T01:07:53;9.64;76.27
68912;SHT31;55953;51.650;-0.522;2023-05-24T01:10:57;9.60;76.47
68912;SHT31;55953;51.650;-0.522;2023-05-24T01:13:35;9.64;76.60
68912;SHT31;55953;51.650;-0.522;2023-05-24T01:16:35;9.69;76.33
68912;SHT31;55953;51.650;-0.522;2023-05-24T01:25:18;9.67;76.17
68912;SHT31;55953;51.650;-0.522;2023-05-24T01:28:08;9.59;76.33
68912;SHT31;55953;51.650;-0.522;2023-05-24T01:30:41;9.60;76.27
68912;SHT31;55953;51.650;-0.522;2023-05-24T01:33:11;9.57;76.33
68912;SHT31;55953;51.650;-0.522;2023-05-24T01:35:39;9.54;76.36
68912;SHT31;55953;51.650;-0.522;2023-05-24T01:38:09;9.47;76.47
68912;SHT31;55953;51.650;-0.522;2023-05-24T01:40:40;9.48;76.38
68912;SHT31;55953;51.650;-0.522;2023-05-24T01:43:23;9.44;76.42
68912;SHT31;55953;51.650;-0.522;2023-05-24T01:51:39;9.36;76.60
68912;SHT31;55953;51.650;-0.522;2023-05-24T01:54:18;9.43;76.54
68912;SHT31;55953;51.650;-0.522;2023-05-24T01:56:50;9.50;76.25
68912;SHT31;55953;51.650;-0.522;2023-05-24T01:59:21;9.42;76.24
68912;SHT31;55953;51.650;-0.522;2023-05-24T02:01:51;9.34;76.45
68912;SHT31;55953;51.650;-0.522;2023-05-24T02:04:20;9.22;76.71
68912;SHT31;55953;51.650;-0.522;2023-05-24T02:06:48;9.13;77.09
68912;SHT31;55953;51.650;-0.522;2023-05-24T02:09:16;9.17;77.05
68912;SHT31;55953;51.650;-0.522;2023-05-24T02:11:44;9.20;76.88
68912;SHT31;55953;51.650;-0.522;2023-05-24T02:14:12;9.13;77.04
68912;SHT31;55953;51.650;-0.522;2023-05-24T02:16:39;9.09;77.24
68912;SHT31;55953;51.650;-0.522;2023-05-24T02:19:09;9.03;77.20
68912;SHT31;55953;51.650;-0.522;2023-05-24T02:21:40;9.00;77.08
68912;SHT31;55953;51.650;-0.522;2023-05-24T02:24:10;8.96;77.33
68912;SHT31;55953;51.650;-0.522;2023-05-24T02:26:39;8.98;77.32
68912;SHT31;55953;51.650;-0.522;2023-05-24T02:29:07;8.95;77.48
68912;SHT31;55953;51.650;-0.522;2023-05-24T02:31:35;8.93;77.52
68912;SHT31;55953;51.650;-0.522;2023-05-24T02:34:03;8.93;77.28
68912;SHT31;55953;51.650;-0.522;2023-05-24T02:36:31;8.96;77.34
68912;SHT31;55953;51.650;-0.522;2023-05-24T02:39:01;8.97;77.35
68912;SHT31;55953;51.650;-0.522;2023-05-24T02:41:30;8.95;77.27
68912;SHT31;55953;51.650;-0.522;2023-05-24T02:43:58;8.91;77.62
68912;SHT31;55953;51.650;-0.522;2023-05-24T02:46:26;8.90;77.68
68912;SHT31;55953;51.650;-0.522;2023-05-24T02:48:53;8.85;77.62
68912;SHT31;55953;51.650;-0.522;2023-05-24T02:51:22;8.78;77.64
68912;SHT31;55953;51.650;-0.522;2023-05-24T02:53:50;8.76;77.79
68912;SHT31;55953;51.650;-0.522;2023-05-24T02:56:17;8.74;77.70
68912;SHT31;55953;51.650;-0.522;2023-05-24T02:58:45;8.73;77.95
68912;SHT31;55953;51.650;-0.522;2023-05-24T03:01:13;8.67;77.84
68912;SHT31;55953;51.650;-0.522;2023-05-24T03:03:41;8.64;77.81
68912;SHT31;55953;51.650;-0.522;2023-05-24T03:06:10;8.63;77.99
68912;SHT31;55953;51.650;-0.522;2023-05-24T03:08:40;8.62;77.89
68912;SHT31;55953;51.650;-0.522;2023-05-24T03:11:08;8.67;77.85
68912;SHT31;55953;51.650;-0.522;2023-05-24T03:13:36;8.67;77.78
68912;SHT31;55953;51.650;-0.522;2023-05-24T03:16:05;8.62;77.78
68912;SHT31;55953;51.650;-0.522;2023-05-24T03:18:33;8.61;77.81
68912;SHT31;55953;51.650;-0.522;2023-05-24T03:21:00;8.61;77.93
68912;SHT31;55953;51.650;-0.522;2023-05-24T03:23:28;8.60;77.98
68912;SHT31;55953;51.650;-0.522;2023-05-24T03:25:56;8.56;77.99
68912;SHT31;55953;51.650;-0.522;2023-05-24T03:28:24;8.50;78.06
68912;SHT31;55953;51.650;-0.522;2023-05-24T03:30:54;8.54;78.65
68912;SHT31;55953;51.650;-0.522;2023-05-24T03:33:21;8.54;78.51
68912;SHT31;55953;51.650;-0.522;2023-05-24T03:35:49;8.59;78.67
68912;SHT31;55953;51.650;-0.522;2023-05-24T03:38:18;8.67;78.67
68912;SHT31;55953;51.650;-0.522;2023-05-24T03:40:46;8.74;78.57
68912;SHT31;55953;51.650;-0.522;2023-05-24T03:43:18;8.77;78.47
68912;SHT31;55953;51.650;-0.522;2023-05-24T03:45:49;8.82;78.71
68912;SHT31;55953;51.650;-0.522;2023-05-24T03:48:19;8.90;78.66
68912;SHT31;55953;51.650;-0.522;2023-05-24T03:50:50;8.97;78.46
68912;SHT31;55953;51.650;-0.522;2023-05-24T03:53:20;9.02;78.45
68912;SHT31;55953;51.650;-0.522;2023-05-24T03:55:49;9.04;78.27
68912;SHT31;55953;51.650;-0.522;2023-05-24T03:58:18;9.07;78.43
68912;SHT31;55953;51.650;-0.522;2023-05-24T04:00:46;9.14;78.49
68912;SHT31;55953;51.650;-0.522;2023-05-24T04:03:14;9.24;78.40
68912;SHT31;55953;51.650;-0.522;2023-05-24T04:05:42;9.29;78.35
68912;SHT31;55953;51.650;-0.522;2023-05-24T04:08:10;9.33;78.24
68912;SHT31;55953;51.650;-0.522;2023-05-24T04:10:38;9.41;78.32
68912;SHT31;55953;51.650;-0.522;2023-05-24T04:13:09;9.48;78.07
68912;SHT31;55953;51.650;-0.522;2023-05-24T04:15:37;9.53;77.92
68912;SHT31;55953;51.650;-0.522;2023-05-24T04:18:05;9.56;77.78
68912;SHT31;55953;51.650;-0.522;2023-05-24T04:20:34;9.58;77.81
68912;SHT31;55953;51.650;-0.522;2023-05-24T04:23:02;9.60;77.96
68912;SHT31;55953;51.650;-0.522;2023-05-24T04:25:30;9.62;77.93
68912;SHT31;55953;51.650;-0.522;2023-05-24T04:28:00;9.66;77.84
68912;SHT31;55953;51.650;-0.522;2023-05-24T04:30:31;9.66;77.76
68912;SHT31;55953;51.650;-0.522;2023-05-24T04:32:59;9.72;77.69
68912;SHT31;55953;51.650;-0.522;2023-05-24T04:35:27;9.73;77.65
68912;SHT31;55953;51.650;-0.522;2023-05-24T04:37:56;9.75;77.60
68912;SHT31;55953;51.650;-0.522;2023-05-24T04:40:26;9.74;77.64
68912;SHT31;55953;51.650;-0.522;2023-05-24T04:42:53;9.75;77.67
68912;SHT31;55953;51.650;-0.522;2023-05-24T04:45:21;9.81;77.69
68912;SHT31;55953;51.650;-0.522;2023-05-24T04:47:49;9.85;77.55
68912;SHT31;55953;51.650;-0.522;2023-05-24T04:50:17;9.89;77.54
68912;SHT31;55953;51.650;-0.522;2023-05-24T04:52:45;9.98;77.43
68912;SHT31;55953;51.650;-0.522;2023-05-24T04:55:13;10.01;77.42
68912;SHT31;55953;51.650;-0.522;2023-05-24T04:57:41;10.03;77.32
68912;SHT31;55953;51.650;-0.522;2023-05-24T05:00:09;10.06;77.28
68912;SHT31;55953;51.650;-0.522;2023-05-24T05:02:38;10.13;77.23
68912;SHT31;55953;51.650;-0.522;2023-05-24T05:05:06;10.20;77.30
68912;SHT31;55953;51.650;-0.522;2023-05-24T05:07:35;10.31;76.94
68912;SHT31;55953;51.650;-0.522;2023-05-24T05:10:03;10.32;76.94
68912;SHT31;55953;51.650;-0.522;2023-05-24T05:12:33;10.36;77.02
68912;SHT31;55953;51.650;-0.522;2023-05-24T05:15:00;10.37;77.08
68912;SHT31;55953;51.650;-0.522;2023-05-24T05:17:28;10.41;77.11
68912;SHT31;55953;51.650;-0.522;2023-05-24T05:19:56;10.47;77.04
68912;SHT31;55953;51.650;-0.522;2023-05-24T05:22:24;10.53;76.91
68912;SHT31;55953;51.650;-0.522;2023-05-24T05:24:52;10.61;76.83
68912;SHT31;55953;51.650;-0.522;2023-05-24T05:27:20;10.67;76.75
68912;SHT31;55953;51.650;-0.522;2023-05-24T05:29:48;10.73;76.69
68912;SHT31;55953;51.650;-0.522;2023-05-24T05:32:16;10.78;76.67
68912;SHT31;55953;51.650;-0.522;2023-05-24T05:34:44;10.86;76.47
68912;SHT31;55953;51.650;-0.522;2023-05-24T05:37:12;10.93;76.32
68912;SHT31;55953;51.650;-0.522;2023-05-24T05:39:39;10.99;76.30
68912;SHT31;55953;51.650;-0.522;2023-05-24T05:42:07;11.04;76.33
68912;SHT31;55953;51.650;-0.522;2023-05-24T05:44:35;11.10;76.17
68912;SHT31;55953;51.650;-0.522;2023-05-24T05:47:03;11.19;76.18
68912;SHT31;55953;51.650;-0.522;2023-05-24T05:49:33;11.19;76.17
68912;SHT31;55953;51.650;-0.522;2023-05-24T05:52:05;11.27;75.98
68912;SHT31;55953;51.650;-0.522;2023-05-24T05:54:32;11.33;75.86
68912;SHT31;55953;51.650;-0.522;2023-05-24T05:57:01;11.44;75.82
68912;SHT31;55953;51.650;-0.522;2023-05-24T05:59:29;11.50;75.74
68912;SHT31;55953;51.650;-0.522;2023-05-24T06:01:56;11.56;75.81
68912;SHT31;55953;51.650;-0.522;2023-05-24T06:04:24;11.59;75.51
68912;SHT31;55953;51.650;-0.522;2023-05-24T06:06:52;11.67;75.42
68912;SHT31;55953;51.650;-0.522;2023-05-24T06:09:21;11.74;75.44
68912;SHT31;55953;51.650;-0.522;2023-05-24T06:11:49;11.79;75.20
68912;SHT31;55953;51.650;-0.522;2023-05-24T06:14:17;11.88;75.18
68912;SHT31;55953;51.650;-0.522;2023-05-24T06:16:46;11.96;74.95
68912;SHT31;55953;51.650;-0.522;2023-05-24T06:19:15;12.01;74.74
68912;SHT31;55953;51.650;-0.522;2023-05-24T06:21:43;12.08;74.74
68912;SHT31;55953;51.650;-0.522;2023-05-24T06:24:15;12.13;74.57
68912;SHT31;55953;51.650;-0.522;2023-05-24T06:26:49;12.21;74.41
68912;SHT31;55953;51.650;-0.522;2023-05-24T06:29:19;12.27;74.20
68912;SHT31;55953;51.650;-0.522;2023-05-24T06:31:48;12.31;74.07
68912;SHT31;55953;51.650;-0.522;2023-05-24T06:34:17;12.35;74.17
68912;SHT31;55953;51.650;-0.522;2023-05-24T06:36:48;12.41;74.01
68912;SHT31;55953;51.650;-0.522;2023-05-24T06:39:18;12.46;73.55
68912;SHT31;55953;51.650;-0.522;2023-05-24T06:41:46;12.47;73.34
68912;SHT31;55953;51.650;-0.522;2023-05-24T06:44:14;12.54;73.50
68912;SHT31;55953;51.650;-0.522;2023-05-24T06:46:46;12.63;73.28
68912;SHT31;55953;51.650;-0.522;2023-05-24T06:49:14;12.65;72.89
68912;SHT31;55953;51.650;-0.522;2023-05-24T06:51:42;12.70;73.17
68912;SHT31;55953;51.650;-0.522;2023-05-24T06:54:10;12.82;73.22
68912;SHT31;55953;51.650;-0.522;2023-05-24T06:56:38;12.87;72.58
68912;SHT31;55953;51.650;-0.522;2023-05-24T06:59:06;12.90;72.44
68912;SHT31;55953;51.650;-0.522;2023-05-24T07:01:35;12.94;72.41
68912;SHT31;55953;51.650;-0.522;2023-05-24T07:04:06;13.01;72.48
68912;SHT31;55953;51.650;-0.522;2023-05-24T07:06:34;13.08;72.39
68912;SHT31;55953;51.650;-0.522;2023-05-24T07:09:04;13.13;72.02
68912;SHT31;55953;51.650;-0.522;2023-05-24T07:11:32;13.19;72.04
68912;SHT31;55953;51.650;-0.522;2023-05-24T07:14:00;13.25;71.61
68912;SHT31;55953;51.650;-0.522;2023-05-24T07:16:28;13.26;71.04
68912;SHT31;55953;51.650;-0.522;2023-05-24T07:18:56;13.27;71.36
68912;SHT31;55953;51.650;-0.522;2023-05-24T07:21:25;13.30;70.88
68912;SHT31;55953;51.650;-0.522;2023-05-24T07:23:52;13.35;71.00
68912;SHT31;55953;51.650;-0.522;2023-05-24T07:26:20;13.36;70.47
68912;SHT31;55953;51.650;-0.522;2023-05-24T07:28:48;13.37;70.77
68912;SHT31;55953;51.650;-0.522;2023-05-24T07:31:16;13.43;70.87
68912;SHT31;55953;51.650;-0.522;2023-05-24T07:33:44;13.47;70.41
68912;SHT31;55953;51.650;-0.522;2023-05-24T07:36:13;13.50;70.18
68912;SHT31;55953;51.650;-0.522;2023-05-24T07:38:42;13.53;70.46
68912;SHT31;55953;51.650;-0.522;2023-05-24T07:41:11;13.62;70.50
68912;SHT31;55953;51.650;-0.522;2023-05-24T07:43:41;13.72;70.34
68912;SHT31;55953;51.650;-0.522;2023-05-24T07:46:09;13.82;70.03
68912;SHT31;55953;51.650;-0.522;2023-05-24T07:48:37;13.93;70.01
68912;SHT31;55953;51.650;-0.522;2023-05-24T07:51:05;14.00;69.50
68912;SHT31;55953;51.650;-0.522;2023-05-24T07:53:34;13.99;69.58
68912;SHT31;55953;51.650;-0.522;2023-05-24T07:56:04;14.07;69.70
68912;SHT31;55953;51.650;-0.522;2023-05-24T07:58:34;14.16;69.33
68912;SHT31;55953;51.650;-0.522;2023-05-24T08:01:02;14.16;68.81
68912;SHT31;55953;51.650;-0.522;2023-05-24T08:03:30;14.24;69.25
68912;SHT31;55953;51.650;-0.522;2023-05-24T08:05:59;14.43;69.13
68912;SHT31;55953;51.650;-0.522;2023-05-24T08:08:26;14.60;68.70
68912;SHT31;55953;51.650;-0.522;2023-05-24T08:10:54;14.86;68.53
68912;SHT31;55953;51.650;-0.522;2023-05-24T08:13:22;15.26;67.43
68912;SHT31;55953;51.650;-0.522;2023-05-24T08:15:51;15.50;66.58
68912;SHT31;55953;51.650;-0.522;2023-05-24T08:18:18;15.68;65.11
68912;SHT31;55953;51.650;-0.522;2023-05-24T08:20:47;15.79;64.97
68912;SHT31;55953;51.650;-0.522;2023-05-24T08:23:15;15.91;64.75
68912;SHT31;55953;51.650;-0.522;2023-05-24T08:25:42;16.12;64.46
68912;SHT31;55953;51.650;-0.522;2023-05-24T08:28:11;16.43;64.28
68912;SHT31;55953;51.650;-0.522;2023-05-24T08:30:39;16.53;63.78
68912;SHT31;55953;51.650;-0.522;2023-05-24T08:33:07;16.62;63.56
68912;SHT31;55953;51.650;-0.522;2023-05-24T08:35:35;16.68;63.37
68912;SHT31;55953;51.650;-0.522;2023-05-24T08:38:03;16.81;63.38
68912;SHT31;55953;51.650;-0.522;2023-05-24T08:40:31;16.83;62.74
68912;SHT31;55953;51.650;-0.522;2023-05-24T08:43:00;16.76;61.68
68912;SHT31;55953;51.650;-0.522;2023-05-24T08:45:29;16.72;62.24
68912;SHT31;55953;51.650;-0.522;2023-05-24T08:47:59;16.82;62.64
68912;SHT31;55953;51.650;-0.522;2023-05-24T08:50:27;16.88;62.39
68912;SHT31;55953;51.650;-0.522;2023-05-24T08:52:58;16.87;61.39
68912;SHT31;55953;51.650;-0.522;2023-05-24T08:55:30;16.88;61.57
68912;SHT31;55953;51.650;-0.522;2023-05-24T08:57:59;16.92;61.57
68912;SHT31;55953;51.650;-0.522;2023-05-24T09:00:28;16.91;61.05
68912;SHT31;55953;51.650;-0.522;2023-05-24T09:02:56;16.96;60.77
68912;SHT31;55953;51.650;-0.522;2023-05-24T09:05:26;16.95;60.38
68912;SHT31;55953;51.650;-0.522;2023-05-24T09:07:56;17.00;61.09
68912;SHT31;55953;51.650;-0.522;2023-05-24T09:10:28;17.12;60.99
68912;SHT31;55953;51.650;-0.522;2023-05-24T09:13:11;17.05;60.20
68912;SHT31;55953;51.650;-0.522;2023-05-24T09:15:42;17.01;60.64
68912;SHT31;55953;51.650;-0.522;2023-05-24T09:18:10;17.07;60.66
68912;SHT31;55953;51.650;-0.522;2023-05-24T09:20:38;17.07;60.92
68912;SHT31;55953;51.650;-0.522;2023-05-24T09:23:06;17.11;61.13
68912;SHT31;55953;51.650;-0.522;2023-05-24T09:25:35;17.16;61.07
68912;SHT31;55953;51.650;-0.522;2023-05-24T09:28:06;17.13;60.11
68912;SHT31;55953;51.650;-0.522;2023-05-24T09:30:35;17.17;60.76
68912;SHT31;55953;51.650;-0.522;2023-05-24T09:33:03;17.19;60.18
68912;SHT31;55953;51.650;-0.522;2023-05-24T09:35:34;17.14;60.01
68912;SHT31;55953;51.650;-0.522;2023-05-24T09:38:03;17.13;59.65
68912;SHT31;55953;51.650;-0.522;2023-05-24T09:40:31;17.29;60.33
68912;SHT31;55953;51.650;-0.522;2023-05-24T09:43:05;17.53;59.71
68912;SHT31;55953;51.650;-0.522;2023-05-24T09:48:14;17.85;59.07
68912;SHT31;55953;51.650;-0.522;2023-05-24T09:50:56;18.04;58.20
68912;SHT31;55953;51.650;-0.522;2023-05-24T09:53:33;18.13;57.81
68912;SHT31;55953;51.650;-0.522;2023-05-24T09:56:03;18.20;57.64
68912;SHT31;55953;51.650;-0.522;2023-05-24T09:58:35;18.36;58.11
68912;SHT31;55953;51.650;-0.522;2023-05-24T10:01:03;18.50;56.97
68912;SHT31;55953;51.650;-0.522;2023-05-24T10:03:35;18.44;56.96
68912;SHT31;55953;51.650;-0.522;2023-05-24T10:06:05;18.38;56.99
68912;SHT31;55953;51.650;-0.522;2023-05-24T10:08:34;18.43;56.80
68912;SHT31;55953;51.650;-0.522;2023-05-24T10:11:03;18.39;56.26
68912;SHT31;55953;51.650;-0.522;2023-05-24T10:13:32;18.35;57.50
68912;SHT31;55953;51.650;-0.522;2023-05-24T10:16:02;18.25;56.89
68912;SHT31;55953;51.650;-0.522;2023-05-24T10:18:30;18.15;57.61
68912;SHT31;55953;51.650;-0.522;2023-05-24T10:20:58;18.19;57.19
68912;SHT31;55953;51.650;-0.522;2023-05-24T10:23:28;18.19;57.25
68912;SHT31;55953;51.650;-0.522;2023-05-24T10:26:02;18.31;57.57
68912;SHT31;55953;51.650;-0.522;2023-05-24T10:28:40;18.41;57.10
68912;SHT31;55953;51.650;-0.522;2023-05-24T10:31:14;18.59;57.31
68912;SHT31;55953;51.650;-0.522;2023-05-24T10:33:50;18.50;57.13
68912;SHT31;55953;51.650;-0.522;2023-05-24T10:36:27;18.58;57.00
68912;SHT31;55953;51.650;-0.522;2023-05-24T10:38:57;18.75;57.15
68912;SHT31;55953;51.650;-0.522;2023-05-24T10:41:25;18.71;56.37
68912;SHT31;55953;51.650;-0.522;2023-05-24T10:43:54;18.60;56.44
68912;SHT31;55953;51.650;-0.522;2023-05-24T10:47:00;18.71;56.92
68912;SHT31;55953;51.650;-0.522;2023-05-24T10:49:49;18.86;56.52
68912;SHT31;55953;51.650;-0.522;2023-05-24T10:52:19;18.87;56.62
68912;SHT31;55953;51.650;-0.522;2023-05-24T10:55:06;18.70;56.13
68912;SHT31;55953;51.650;-0.522;2023-05-24T10:57:37;18.63;56.41
68912;SHT31;55953;51.650;-0.522;2023-05-24T11:03:01;18.68;56.50
68912;SHT31;55953;51.650;-0.522;2023-05-24T11:05:56;18.84;57.20
68912;SHT31;55953;51.650;-0.522;2023-05-24T11:08:28;18.84;56.32
68912;SHT31;55953;51.650;-0.522;2023-05-24T11:11:16;18.74;56.29
68912;SHT31;55953;51.650;-0.522;2023-05-24T11:13:59;18.85;56.84
68912;SHT31;55953;51.650;-0.522;2023-05-24T11:16:32;18.89;55.11
68912;SHT31;55953;51.650;-0.522;2023-05-24T11:19:11;18.92;55.72
68912;SHT31;55953;51.650;-0.522;2023-05-24T11:21:47;19.03;56.07
68912;SHT31;55953;51.650;-0.522;2023-05-24T11:24:25;18.91;56.00
68912;SHT31;55953;51.650;-0.522;2023-05-24T11:26:54;19.09;56.17
68912;SHT31;55953;51.650;-0.522;2023-05-24T11:29:23;19.18;55.50
68912;SHT31;55953;51.650;-0.522;2023-05-24T11:31:52;19.22;54.95
68912;SHT31;55953;51.650;-0.522;2023-05-24T11:34:32;19.27;54.38
68912;SHT31;55953;51.650;-0.522;2023-05-24T11:37:01;19.38;54.35
68912;SHT31;55953;51.650;-0.522;2023-05-24T11:39:33;19.58;54.80
68912;SHT31;55953;51.650;-0.522;2023-05-24T11:42:03;19.60;54.56
68912;SHT31;55953;51.650;-0.522;2023-05-24T11:44:34;19.45;54.21
68912;SHT31;55953;51.650;-0.522;2023-05-24T11:47:06;19.50;54.41
68912;SHT31;55953;51.650;-0.522;2023-05-24T11:49:35;19.63;53.93
68912;SHT31;55953;51.650;-0.522;2023-05-24T11:52:03;19.82;54.39
68912;SHT31;55953;51.650;-0.522;2023-05-24T11:54:31;19.89;53.50
68912;SHT31;55953;51.650;-0.522;2023-05-24T11:57:01;19.73;53.02
68912;SHT31;55953;51.650;-0.522;2023-05-24T11:59:30;19.82;53.37
68912;SHT31;55953;51.650;-0.522;2023-05-24T12:02:04;19.97;53.19
68912;SHT31;55953;51.650;-0.522;2023-05-24T12:04:33;20.10;53.69
68912;SHT31;55953;51.650;-0.522;2023-05-24T12:07:02;20.17;53.00
68912;SHT31;55953;51.650;-0.522;2023-05-24T12:09:30;20.25;52.65
68912;SHT31;55953;51.650;-0.522;2023-05-24T12:11:58;20.45;52.84
68912;SHT31;55953;51.650;-0.522;2023-05-24T12:14:26;20.64;51.73
68912;SHT31;55953;51.650;-0.522;2023-05-24T12:16:59;20.77;52.19
68912;SHT31;55953;51.650;-0.522;2023-05-24T12:19:28;20.94;52.02
68912;SHT31;55953;51.650;-0.522;2023-05-24T12:22:04;21.10;50.62
68912;SHT31;55953;51.650;-0.522;2023-05-24T12:24:34;21.07;50.86
68912;SHT31;55953;51.650;-0.522;2023-05-24T12:27:04;20.91;50.31
68912;SHT31;55953;51.650;-0.522;2023-05-24T12:29:38;20.74;50.89
68912;SHT31;55953;51.650;-0.522;2023-05-24T12:32:09;20.82;51.13
68912;SHT31;55953;51.650;-0.522;2023-05-24T12:34:42;20.88;50.50
68912;SHT31;55953;51.650;-0.522;2023-05-24T12:37:13;21.11;51.14
68912;SHT31;55953;51.650;-0.522;2023-05-24T12:39:42;21.41;50.05
68912;SHT31;55953;51.650;-0.522;2023-05-24T12:42:11;21.56;49.65
68912;SHT31;55953;51.650;-0.522;2023-05-24T12:44:40;21.66;49.60
68912;SHT31;55953;51.650;-0.522;2023-05-24T12:47:08;21.67;48.95
68912;SHT31;55953;51.650;-0.522;2023-05-24T12:49:37;21.87;48.77
68912;SHT31;55953;51.650;-0.522;2023-05-24T12:52:05;22.04;47.23
68912;SHT31;55953;51.650;-0.522;2023-05-24T12:54:33;21.99;47.64
68912;SHT31;55953;51.650;-0.522;2023-05-24T12:57:01;21.97;47.80
68912;SHT31;55953;51.650;-0.522;2023-05-24T12:59:30;22.00;48.85
68912;SHT31;55953;51.650;-0.522;2023-05-24T13:01:58;22.09;48.83
68912;SHT31;55953;51.650;-0.522;2023-05-24T13:04:26;22.35;48.51
68912;SHT31;55953;51.650;-0.522;2023-05-24T13:06:54;22.35;47.06
68912;SHT31;55953;51.650;-0.522;2023-05-24T13:09:23;22.31;46.60
68912;SHT31;55953;51.650;-0.522;2023-05-24T13:11:53;22.01;47.14
68912;SHT31;55953;51.650;-0.522;2023-05-24T13:14:22;21.95;48.18
68912;SHT31;55953;51.650;-0.522;2023-05-24T13:16:50;22.24;48.07
68912;SHT31;55953;51.650;-0.522;2023-05-24T13:19:18;22.35;47.14
68912;SHT31;55953;51.650;-0.522;2023-05-24T13:21:45;22.08;46.61
68912;SHT31;55953;51.650;-0.522;2023-05-24T13:24:14;21.66;46.20
68912;SHT31;55953;51.650;-0.522;2023-05-24T13:26:43;21.49;47.84
68912;SHT31;55953;51.650;-0.522;2023-05-24T13:29:11;21.61;48.33
68912;SHT31;55953;51.650;-0.522;2023-05-24T13:31:43;21.98;48.72
68912;SHT31;55953;51.650;-0.522;2023-05-24T13:34:12;22.35;47.06
68912;SHT31;55953;51.650;-0.522;2023-05-24T13:36:40;22.50;46.33
68912;SHT31;55953;51.650;-0.522;2023-05-24T13:39:09;22.24;44.88
68912;SHT31;55953;51.650;-0.522;2023-05-24T13:41:40;22.13;44.79
68912;SHT31;55953;51.650;-0.522;2023-05-24T13:44:09;22.25;45.99
68912;SHT31;55953;51.650;-0.522;2023-05-24T13:46:42;22.61;46.28
68912;SHT31;55953;51.650;-0.522;2023-05-24T13:49:11;22.91;46.09
68912;SHT31;55953;51.650;-0.522;2023-05-24T13:51:39;23.11;45.41
68912;SHT31;55953;51.650;-0.522;2023-05-24T13:54:07;23.05;43.33
68912;SHT31;55953;51.650;-0.522;2023-05-24T13:56:35;22.86;44.33
68912;SHT31;55953;51.650;-0.522;2023-05-24T13:59:05;22.92;44.96
68912;SHT31;55953;51.650;-0.522;2023-05-24T14:01:33;22.91;43.37
68912;SHT31;55953;51.650;-0.522;2023-05-24T14:04:04;22.69;42.35
68912;SHT31;55953;51.650;-0.522;2023-05-24T14:06:33;22.57;42.14
68912;SHT31;55953;51.650;-0.522;2023-05-24T14:09:04;22.61;43.16
68912;SHT31;55953;51.650;-0.522;2023-05-24T14:11:35;22.67;43.28
68912;SHT31;55953;51.650;-0.522;2023-05-24T14:14:03;22.62;43.06
68912;SHT31;55953;51.650;-0.522;2023-05-24T14:16:34;22.74;43.11
68912;SHT31;55953;51.650;-0.522;2023-05-24T14:19:03;22.79;43.45
68912;SHT31;55953;51.650;-0.522;2023-05-24T14:21:32;22.78;43.26
68912;SHT31;55953;51.650;-0.522;2023-05-24T14:23:59;22.82;43.33
68912;SHT31;55953;51.650;-0.522;2023-05-24T14:26:27;22.83;42.55
68912;SHT31;55953;51.650;-0.522;2023-05-24T14:28:55;22.77;42.86
68912;SHT31;55953;51.650;-0.522;2023-05-24T14:31:23;22.75;43.26
68912;SHT31;55953;51.650;-0.522;2023-05-24T14:33:52;22.78;43.59
68912;SHT31;55953;51.650;-0.522;2023-05-24T14:36:19;22.81;43.39
68912;SHT31;55953;51.650;-0.522;2023-05-24T14:38:48;22.82;43.68
68912;SHT31;55953;51.650;-0.522;2023-05-24T14:41:16;22.84;43.38
68912;SHT31;55953;51.650;-0.522;2023-05-24T14:43:43;22.98;44.76
68912;SHT31;55953;51.650;-0.522;2023-05-24T14:46:12;23.06;43.12
68912;SHT31;55953;51.650;-0.522;2023-05-24T14:48:40;22.89;42.80
68912;SHT31;55953;51.650;-0.522;2023-05-24T14:51:08;22.83;42.45
68912;SHT31;55953;51.650;-0.522;2023-05-24T14:53:36;22.78;42.80
68912;SHT31;55953;51.650;-0.522;2023-05-24T14:56:03;22.86;43.03
68912;SHT31;55953;51.650;-0.522;2023-05-24T14:58:33;22.97;42.42
68912;SHT31;55953;51.650;-0.522;2023-05-24T15:01:02;22.96;41.85
68912;SHT31;55953;51.650;-0.522;2023-05-24T15:03:30;22.93;42.06
68912;SHT31;55953;51.650;-0.522;2023-05-24T15:05:58;22.87;41.62
68912;SHT31;55953;51.650;-0.522;2023-05-24T15:08:27;22.83;41.27
68912;SHT31;55953;51.650;-0.522;2023-05-24T15:10:55;22.81;41.38
68912;SHT31;55953;51.650;-0.522;2023-05-24T15:13:25;22.81;41.85
68912;SHT31;55953;51.650;-0.522;2023-05-24T15:15:53;22.79;41.63
68912;SHT31;55953;51.650;-0.522;2023-05-24T15:18:23;22.65;41.34
68912;SHT31;55953;51.650;-0.522;2023-05-24T15:20:52;22.58;42.23
68912;SHT31;55953;51.650;-0.522;2023-05-24T15:23:22;22.57;42.03
68912;SHT31;55953;51.650;-0.522;2023-05-24T15:25:51;22.69;42.58
68912;SHT31;55953;51.650;-0.522;2023-05-24T15:28:19;22.90;42.14
68912;SHT31;55953;51.650;-0.522;2023-05-24T15:30:47;22.91;41.90
68912;SHT31;55953;51.650;-0.522;2023-05-24T15:33:15;22.98;42.09
68912;SHT31;55953;51.650;-0.522;2023-05-24T15:35:43;23.15;42.56
68912;SHT31;55953;51.650;-0.522;2023-05-24T15:38:12;23.13;41.00
68912;SHT31;55953;51.650;-0.522;2023-05-24T15:40:40;22.89;41.16
68912;SHT31;55953;51.650;-0.522;2023-05-24T15:43:09;22.97;41.64
68912;SHT31;55953;51.650;-0.522;2023-05-24T15:45:37;23.11;41.22
68912;SHT31;55953;51.650;-0.522;2023-05-24T15:48:05;23.08;41.34
68912;SHT31;55953;51.650;-0.522;2023-05-24T15:50:33;23.15;41.28
68912;SHT31;55953;51.650;-0.522;2023-05-24T15:53:21;23.05;40.86